createdAt,value
2023-03-06T21:06:02.871Z,941.58
2023-03-06T21:07:02.813Z,941.58
2023-03-06T21:08:02.742Z,941.58
2023-03-06T21:09:02.711Z,941.51
2023-03-06T21:10:02.671Z,941.55
2023-03-06T21:11:02.599Z,941.48
2023-03-06T21:12:02.510Z,941.47
2023-03-06T21:13:02.465Z,941.43
2023-03-06T21:14:02.391Z,941.48
2023-03-06T21:15:02.395Z,941.48
2023-03-06T21:16:02.304Z,941.46
2023-03-06T21:17:02.218Z,941.44
2023-03-06T21:18:02.138Z,941.47
2023-03-06T21:19:02.068Z,941.50
2023-03-06T21:20:02.028Z,941.45
2023-03-06T21:21:01.944Z,941.46
2023-03-06T21:22:01.873Z,941.42
2023-03-06T21:23:01.818Z,941.45
2023-03-06T21:24:01.768Z,941.41
2023-03-06T21:25:01.681Z,941.44
2023-03-06T21:26:01.598Z,941.42
2023-03-06T21:27:01.564Z,941.41
2023-03-06T21:28:01.462Z,941.40
2023-03-06T21:29:01.393Z,941.38
2023-03-06T21:30:01.333Z,941.39
2023-03-06T21:31:01.287Z,941.41
2023-03-06T21:32:01.269Z,941.41
2023-03-06T21:33:01.123Z,941.41
2023-03-06T21:34:03.091Z,941.43
2023-03-06T21:35:01.024Z,941.40
2023-03-06T21:36:00.982Z,941.39
2023-03-06T21:37:00.892Z,941.35
2023-03-06T21:38:00.811Z,941.40
2023-03-06T21:39:00.702Z,941.40
2023-03-06T21:40:00.642Z,941.38
2023-03-06T21:41:00.556Z,941.36
2023-03-06T21:42:00.498Z,941.35
2023-03-06T21:43:00.409Z,941.34
2023-03-06T21:44:00.355Z,941.32
2023-03-06T21:45:00.340Z,941.37
2023-03-06T21:46:00.236Z,941.28
2023-03-06T21:47:00.144Z,941.29
2023-03-06T21:48:00.082Z,941.32
2023-03-06T21:49:00.005Z,941.30
2023-03-06T21:49:59.968Z,941.30
2023-03-06T21:50:59.881Z,941.30
2023-03-06T21:51:59.808Z,941.29
2023-03-06T21:52:59.753Z,941.28
2023-03-06T21:53:59.680Z,941.26
2023-03-06T21:54:59.631Z,941.24
2023-03-06T21:55:59.562Z,941.26
2023-03-06T21:56:59.454Z,941.23
2023-03-06T21:57:59.423Z,941.24
2023-03-06T21:58:59.324Z,941.20
2023-03-06T21:59:59.309Z,941.21
2023-03-06T22:00:59.216Z,941.19
2023-03-06T22:01:59.115Z,941.19
2023-03-06T22:02:59.034Z,941.18
2023-03-06T22:03:59.017Z,941.17
2023-03-06T22:04:58.906Z,941.11
2023-03-06T22:05:58.852Z,941.07
2023-03-06T22:06:58.743Z,941.10
2023-03-06T22:07:58.673Z,941.03
2023-03-06T22:08:58.599Z,941.05
2023-03-06T22:09:58.562Z,941.06
2023-03-06T22:10:58.455Z,941.07
2023-03-06T22:11:58.397Z,941.03
2023-03-06T22:12:58.328Z,941.06
2023-03-06T22:13:58.281Z,941.08
2023-03-06T22:14:58.189Z,941.07
2023-03-06T22:15:58.123Z,941.03
2023-03-06T22:16:58.042Z,941.03
2023-03-06T22:17:57.970Z,941.04
2023-03-06T22:18:57.892Z,941.02
2023-03-06T22:19:57.827Z,941.03
2023-03-06T22:20:57.782Z,941.02
2023-03-06T22:21:57.691Z,941.01
2023-03-06T22:22:57.623Z,940.98
2023-03-06T22:23:57.612Z,940.92
2023-03-06T22:24:57.489Z,940.95
2023-03-06T22:25:57.436Z,940.97
2023-03-06T22:26:57.350Z,941.00
2023-03-06T22:27:57.256Z,940.96
2023-03-06T22:28:57.189Z,940.94
2023-03-06T22:29:57.109Z,940.90
2023-03-06T22:30:57.016Z,940.87
2023-03-06T22:31:56.997Z,940.94
2023-03-06T22:32:56.930Z,940.88
2023-03-06T22:33:56.808Z,940.91
2023-03-06T22:34:56.724Z,940.91
2023-03-06T22:35:56.690Z,940.86
2023-03-06T22:36:56.573Z,940.85
2023-03-06T22:37:56.509Z,940.87
2023-03-06T22:38:56.443Z,940.89
2023-03-06T22:39:56.385Z,940.75
2023-03-06T22:40:56.307Z,940.78
2023-03-06T22:41:56.244Z,940.84
2023-03-06T22:42:56.171Z,940.83
2023-03-06T22:43:56.105Z,940.85
2023-03-06T22:44:56.088Z,940.86
2023-03-06T22:45:55.988Z,940.81
2023-03-06T22:46:55.919Z,940.78
2023-03-06T22:48:05.625Z,940.82
2023-03-06T22:48:56.762Z,940.79
2023-03-06T22:49:55.706Z,940.72
2023-03-06T22:50:55.618Z,940.76
2023-03-06T22:51:55.554Z,940.78
2023-03-06T22:52:55.470Z,940.76
2023-03-06T22:53:55.413Z,940.72
2023-03-06T22:54:55.335Z,940.69
2023-03-06T22:55:55.228Z,940.66
2023-03-06T22:56:55.143Z,940.71
2023-03-06T22:57:55.137Z,940.69
2023-03-06T22:58:55.033Z,940.73
2023-03-06T22:59:54.948Z,940.69
2023-03-06T23:00:54.848Z,940.73
2023-03-06T23:01:54.777Z,940.72
2023-03-06T23:02:54.711Z,940.69
2023-03-06T23:03:54.638Z,940.67
2023-03-06T23:04:54.568Z,940.70
2023-03-06T23:05:54.529Z,940.69
2023-03-06T23:06:54.407Z,940.70
2023-03-06T23:07:54.328Z,940.75
2023-03-06T23:08:54.261Z,940.71
2023-03-06T23:09:54.185Z,940.72
2023-03-06T23:10:54.109Z,940.72
2023-03-06T23:11:54.030Z,940.75
2023-03-06T23:12:53.958Z,940.67
2023-03-06T23:13:53.872Z,940.73
2023-03-06T23:14:53.844Z,940.68
2023-03-06T23:15:53.768Z,940.68
2023-03-06T23:16:53.644Z,940.62
2023-03-06T23:17:53.576Z,940.67
2023-03-06T23:18:53.516Z,940.66
2023-03-06T23:19:53.460Z,940.68
2023-03-06T23:20:53.358Z,940.61
2023-03-06T23:21:53.280Z,940.62
2023-03-06T23:22:53.211Z,940.60
2023-03-06T23:23:53.135Z,940.52
2023-03-06T23:24:53.047Z,940.53
2023-03-06T23:25:52.979Z,940.58
2023-03-06T23:26:52.884Z,940.53
2023-03-06T23:27:52.811Z,940.54
2023-03-06T23:28:52.730Z,940.57
2023-03-06T23:29:52.663Z,940.54
2023-03-06T23:30:52.597Z,940.57
2023-03-06T23:31:52.507Z,940.58
2023-03-06T23:32:52.429Z,940.54
2023-03-06T23:33:52.410Z,940.51
2023-03-06T23:34:52.288Z,940.56
2023-03-06T23:35:52.256Z,940.52
